Time;durP1;ratioP1;P1;durP2;ratioP2;P2;SDS_P1;SDS_P2;PMS_P1;PMS_P2;Temp;Humidity;BMP_temperature;BMP_pressure;BME280_temperature;BME280_humidity;BME280_pressure;Samples;Min_cycle;Max_cycle;Signal;HPM_P1;HPM_P2
2022/03/28 00:05:49;;;;;;;;;;;;;;;;;;;;;
2022/03/28 00:11:57;;;;;;;;;;;;;;;;;;4969770;28;19914;-90
2022/03/28 00:14:24;;;;;;;;;;;;;;;;;;4927950;29;20014;-89
2022/03/28 00:16:50;;;;;;;;;;;;;;;;;;4912255;29;19919;-88
2022/03/28 00:29:41;;;;;;;;;;;;;;;;;;4877550;29;19926;-87
2022/03/28 00:32:07;;;;;;;;;;;;;;;;;;4857329;29;19972;-90
2022/03/28 00:34:36;;;;;;;;;;;;;;;;;;4909972;28;19916;-90
2022/03/28 00:37:11;;;;;;;;;;;;;;;;;;4973946;28;19932;-90
2022/03/28 00:39:42;;;;;;;;;;;;;;;;;;4959270;28;19914;-90
2022/03/28 00:42:08;;;;;;;;;;;;;;;;;;4963583;28;19971;-89
2022/03/28 00:44:34;;;;;;;;;;;;;;;;;;4968052;28;19977;-89
2022/03/28 00:47:08;;;;;;;;;;;;;;;;;;5003122;28;20004;-90
2022/03/28 00:49:39;;;;;;;;;;;;;;;;;;5018299;28;19941;-90
2022/03/28 01:19:51;;;;;;;;;;;;;;;;;;;;;
2022/03/28 01:32:53;;;;;;;;;;;;;;;;;;4881663;29;20276;-88
2022/03/28 01:35:21;;;;;;;;;;;;;;;;;;4899785;29;19919;-87
2022/03/28 01:37:57;;;;;;;;;;;;;;;;;;4890681;29;20280;-88
2022/03/28 01:40:44;;;;;;;;;;;;;;;;;;4955193;28;20351;-90
2022/03/28 01:43:12;;;;;;;;;;;;;;;;;;5016616;28;19975;-89
2022/03/28 01:45:57;;;;;;;;;;;;;;;;;;5019846;28;20284;-90
2022/03/28 01:48:36;;;;;;;;;;;;;;;;;;4996524;28;19920;-90
2022/03/28 01:51:25;;;;;;;;;;;;;;;;;;5012844;28;19924;-89
2022/03/28 01:53:57;;;;;;;;;;;;;;;;;;5022894;28;19928;-90
2022/03/28 01:56:29;;;;;;;;;;;;;;;;;;5033040;28;19913;-89
2022/03/28 01:59:20;;;;;;;;;;;;;;;;;;5019941;28;19913;-91
2022/03/28 02:02:11;;;;;;;;;;;;;;;;;;4989835;28;19914;-90
2022/03/28 02:04:45;;;;;;;;;;;;;;;;;;4996818;28;19986;-88
2022/03/28 02:07:13;;;;;;;;;;;;;;;;;;4980573;28;19921;-90
2022/03/28 02:09:48;;;;;;;;;;;;;;;;;;4961905;28;19914;-89
2022/03/28 02:12:17;;;;;;;;;;;;;;;;;;4972826;28;19942;-89
2022/03/28 02:14:54;;;;;;;;;;;;;;;;;;4973291;28;19978;-89
2022/03/28 02:17:31;;;;;;;;;;;;;;;;;;4987589;28;19987;-89
2022/03/28 02:19:59;;;;;;;;;;;;;;;;;;4991226;28;19937;-89
2022/03/28 02:22:30;;;;;;;;;;;;;;;;;;4989378;28;20003;-90
2022/03/28 02:25:03;;;;;;;;;;;;;;;;;;5007524;28;19918;-89
2022/03/28 02:27:47;;;;;;;;;;;;;;;;;;;;;
2022/03/28 02:30:16;;;;;;;;;;;;;;;;;;5006876;28;19913;-89
2022/03/28 02:32:57;;;;;;;;;;;;;;;;;;5016887;28;20705;-89
2022/03/28 02:35:46;;;;;;;;;;;;;;;;;;5039891;28;19926;-89
2022/03/28 02:38:15;;;;;;;;;;;;;;;;;;5054847;28;19934;-89
2022/03/28 02:40:43;;;;;;;;;;;;;;;;;;5053450;28;19936;-90
2022/03/28 02:43:09;;;;;;;;;;;;;;;;;;5037737;28;19919;-88
2022/03/28 02:48:52;;;;;;;;;;;;;;;;;;5046657;28;19935;-89
2022/03/28 02:51:20;;;;;;;;;;;;;;;;;;5063034;28;20454;-89
2022/03/28 02:53:49;;;;;;;;;;;;;;;;;;5046800;28;19920;-88
2022/03/28 02:59:31;;;;;;;;;;;;;;;;;;5065699;28;19916;-88
2022/03/28 03:01:56;;;;;;;;;;;;;;;;;;5066216;28;20290;-89
2022/03/28 03:04:26;;;;;;;;;;;;;;;;;;5051747;28;19954;-89
2022/03/28 03:06:51;;;;;;;;;;;;;;;;;;5037904;28;19920;-90
2022/03/28 03:09:50;;;;;;;;;;;;;;;;;;5035868;28;20191;-90
2022/03/28 03:12:16;;;;;;;;;;;;;;;;;;5052006;28;20051;-88
2022/03/28 03:14:59;;;;;;;;;;;;;;;;;;5057846;28;19924;-88
2022/03/28 03:17:25;;;;;;;;;;;;;;;;;;5074441;28;19905;-87
2022/03/28 03:19:53;;;;;;;;;;;;;;;;;;5057153;28;19920;-89
2022/03/28 03:22:20;;;;;;;;;;;;;;;;;;5056970;28;19927;-87
2022/03/28 03:24:47;;;;;;;;;;;;;;;;;;5075303;28;19920;-88
2022/03/28 03:27:12;;;;;;;;;;;;;;;;;;5056840;28;19909;-87
2022/03/28 03:29:38;;;;;;;;;;;;;;;;;;5058692;28;19911;-90
2022/03/28 03:32:03;;;;;;;;;;;;;;;;;;5057478;28;19971;-88
2022/03/28 03:34:32;;;;;;;;;;;;;;;;;;5057708;28;19905;-89
2022/03/28 03:36:58;;;;;;;;;;;;;;;;;;5033038;28;20222;-90
2022/03/28 03:39:26;;;;;;;;;;;;;;;;;;5058184;28;19909;-89
2022/03/28 03:42:04;;;;;;;;;;;;;;;;;;5049461;28;19916;-89
2022/03/28 03:44:35;;;;;;;;;;;;;;;;;;5046426;28;19921;-90
2022/03/28 03:47:08;;;;;;;;;;;;;;;;;;5056183;28;19934;-89
2022/03/28 03:50:00;;;;;;;;;;;;;;;;;;5047230;28;19912;-89
2022/03/28 03:52:31;;;;;;;;;;;;;;;;;;5060837;28;19917;-89
2022/03/28 03:55:16;;;;;;;;;;;;;;;;;;5052833;28;19915;-90
2022/03/28 03:57:49;;;;;;;;;;;;;;;;;;5069074;28;19915;-88
2022/03/28 04:00:23;;;;;;;;;;;;;;;;;;5068531;28;19919;-88
2022/03/28 04:02:59;;;;;;;;;;;;;;;;;;5066037;28;19931;-90
2022/03/28 04:05:30;;;;;;;;;;;;;;;;;;5060970;28;19904;-89
2022/03/28 04:08:07;;;;;;;;;;;;;;;;;;5077632;28;20002;-89
2022/03/28 04:10:42;;;;;;;;;;;;;;;;;;5051493;28;20003;-87
2022/03/28 04:13:38;;;;;;;;;;;;;;;;;;5061093;28;19917;-89
2022/03/28 04:16:08;;;;;;;;;;;;;;;;;;5023230;28;20258;-90
2022/03/28 04:18:39;;;;;;;;;;;;;;;;;;5044122;28;19920;-89
2022/03/28 04:24:35;;;;;;;;;;;;;;;;;;5040007;28;19909;-89
2022/03/28 04:27:10;;;;;;;;;;;;;;;;;;5018007;28;19921;-91
2022/03/28 04:29:35;;;;;;;;;;;;;;;;;;5017624;28;20012;-90
2022/03/28 04:32:04;;;;;;;;;;;;;;;;;;5033314;28;19948;-91
2022/03/28 04:34:30;;;;;;;;;;;;;;;;;;5039327;28;19908;-91
2022/03/28 04:37:00;;;;;;;;;;;;;;;;;;5035656;28;20944;-89
2022/03/28 04:39:27;;;;;;;;;;;;;;;;;;5037483;28;19913;-88
2022/03/28 04:41:52;;;;;;;;;;;;;;;;;;5020351;28;19909;-88
2022/03/28 04:44:21;;;;;;;;;;;;;;;;;;5020269;28;19984;-87
2022/03/28 04:46:49;;;;;;;;;;;;;;;;;;5035755;28;19944;-86
2022/03/28 04:49:15;;;;;;;;;;;;;;;;;;5038178;28;19904;-88
2022/03/28 04:51:40;;;;;;;;;;;;;;;;;;5013162;28;22309;-89
2022/03/28 04:54:05;;;;;;;;;;;;;;;;;;5030413;28;20477;-91
2022/03/28 04:56:51;;;;;;;;;;;;;;;;;;5031935;28;19943;-90
2022/03/28 04:59:21;;;;;;;;;;;;;;;;;;5033392;28;19909;-89
2022/03/28 05:02:01;;;;;;;;;;;;;;;;;;5037780;28;19920;-91
2022/03/28 05:04:38;;;;;;;;;;;;;;;;;;5032549;28;19917;-90
2022/03/28 05:07:25;;;;;;;;;;;;;;;;;;5032917;28;20000;-91
2022/03/28 05:09:51;;;;;;;;;;;;;;;;;;5032239;28;20012;-89
2022/03/28 05:12:26;;;;;;;;;;;;;;;;;;5019025;28;20493;-90
2022/03/28 05:15:02;;;;;;;;;;;;;;;;;;5032611;28;19920;-90
2022/03/28 05:17:30;;;;;;;;;;;;;;;;;;5061855;28;19912;-90
2022/03/28 05:19:57;;;;;;;;;;;;;;;;;;5046964;28;19923;-88
2022/03/28 05:22:32;;;;;;;;;;;;;;;;;;5044729;28;19920;-90
2022/03/28 05:24:58;;;;;;;;;;;;;;;;;;5046762;28;20075;-88
2022/03/28 05:27:24;;;;;;;;;;;;;;;;;;5045060;28;19996;-89
2022/03/28 05:29:49;;;;;;;;;;;;;;;;;;5026625;28;19909;-90
2022/03/28 05:32:15;;;;;;;;;;;;;;;;;;5058082;28;20012;-88
2022/03/28 05:34:44;;;;;;;;;;;;;;;;;;5050616;28;19919;-90
2022/03/28 05:37:11;;;;;;;;;;;;;;;;;;5038896;28;19913;-88
2022/03/28 05:39:39;;;;;;;;;;;;;;;;;;5049149;28;19924;-90
2022/03/28 05:42:07;;;;;;;;;;;;;;;;;;5021125;28;20007;-90
2022/03/28 05:44:33;;;;;;;;;;;;;;;;;;5019168;28;19991;-87
2022/03/28 05:47:08;;;;;;;;;;;;;;;;;;5042962;28;20490;-91
2022/03/28 05:49:41;;;;;;;;;;;;;;;;;;5058905;28;19919;-89
2022/03/28 05:52:30;;;;;;;;;;;;;;;;;;5040754;28;19912;-90
2022/03/28 05:54:59;;;;;;;;;;;;;;;;;;5043441;28;19919;-90
2022/03/28 05:57:33;;;;;;;;;;;;;;;;;;5034197;28;19916;-90
2022/03/28 06:00:13;;;;;;;;;;;;;;;;;;5049586;28;19940;-89
2022/03/28 06:02:42;;;;;;;;;;;;;;;;;;5045976;28;19919;-87
2022/03/28 06:05:08;;;;;;;;;;;;;;;;;;5048835;28;20330;-86
2022/03/28 06:07:35;;;;;;;;;;;;;;;;;;5044734;28;19921;-88
2022/03/28 06:10:06;;;;;;;;;;;;;;;;;;5041704;28;19908;-89
2022/03/28 06:12:32;;;;;;;;;;;;;;;;;;5058911;28;19920;-90
2022/03/28 06:15:01;;;;;;;;;;;;;;;;;;5042584;28;20316;-88
2022/03/28 06:17:27;;;;;;;;;;;;;;;;;;5057990;28;19919;-86
2022/03/28 06:19:52;;;;;;;;;;;;;;;;;;5058037;28;19924;-86
2022/03/28 06:22:18;;;;;;;;;;;;;;;;;;5029949;28;19909;-87
2022/03/28 06:24:46;;;;;;;;;;;;;;;;;;5040555;28;19913;-87
2022/03/28 06:27:13;;;;;;;;;;;;;;;;;;5042822;28;19908;-89
2022/03/28 06:29:42;;;;;;;;;;;;;;;;;;5040579;28;19927;-89
2022/03/28 06:32:10;;;;;;;;;;;;;;;;;;5040061;28;19980;-88
2022/03/28 06:34:39;;;;;;;;;;;;;;;;;;5045446;28;20039;-88
2022/03/28 06:37:08;;;;;;;;;;;;;;;;;;5060608;28;19909;-87
2022/03/28 06:39:35;;;;;;;;;;;;;;;;;;5059092;28;19919;-88
2022/03/28 06:42:03;;;;;;;;;;;;;;;;;;5045540;28;19942;-88
2022/03/28 06:44:38;;;;;;;;;;;;;;;;;;5028767;28;19999;-87
2022/03/28 06:47:03;;;;;;;;;;;;;;;;;;5028215;28;20721;-89
2022/03/28 06:49:32;;;;;;;;;;;;;;;;;;5042704;28;19905;-87
2022/03/28 06:51:57;;;;;;;;;;;;;;;;;;5051826;28;19917;-87
2022/03/28 06:54:22;;;;;;;;;;;;;;;;;;5026335;28;20249;-88
2022/03/28 06:56:48;;;;;;;;;;;;;;;;;;5031133;28;19922;-87
2022/03/28 06:59:20;;;;;;;;;;;;;;;;;;5063160;28;19912;-89
2022/03/28 07:01:45;;;;;;;;;;;;;;;;;;5064029;28;19944;-88
2022/03/28 07:04:11;;;;;;;;;;;;;;;;;;5039473;28;19913;-89
2022/03/28 07:06:38;;;;;;;;;;;;;;;;;;5060457;28;19913;-87
2022/03/28 07:09:06;;;;;;;;;;;;;;;;;;5062191;28;19928;-85
2022/03/28 07:11:34;;;;;;;;;;;;;;;;;;5066210;28;19932;-88
2022/03/28 07:14:01;;;;;;;;;;;;;;;;;;5036117;28;20333;-86
2022/03/28 07:16:27;;;;;;;;;;;;;;;;;;5050322;28;19913;-86
2022/03/28 07:18:52;;;;;;;;;;;;;;;;;;5068476;28;20079;-86
2022/03/28 07:21:17;;;;;;;;;;;;;;;;;;5060706;28;19909;-86
2022/03/28 07:23:48;;;;;;;;;;;;;;;;;;5056480;28;19955;-85
2022/03/28 07:26:16;;;;;;;;;;;;;;;;;;5057689;28;19908;-86
2022/03/28 07:29:00;;;;;;;;;;;;;;;;;;5043438;28;20038;-87
2022/03/28 07:31:39;;;;;;;;;;;;;;;;;;5045518;28;20007;-88
2022/03/28 07:36:53;;;;;;;;;;;;;;;;;;5046523;28;19917;-86
2022/03/28 07:39:20;;;;;;;;;;;;;;;;;;5048265;28;19951;-90
2022/03/28 07:41:53;;;;;;;;;;;;;;;;;;5063274;28;19908;-90
2022/03/28 07:44:19;;;;;;;;;;;;;;;;;;5061980;28;19912;-86
2022/03/28 07:47:23;;;;;;;;;;;;;;;;;;5042694;28;19916;-87
2022/03/28 07:50:21;;;;;;;;;;;;;;;;;;5065409;28;20401;-86
2022/03/28 07:52:55;;;;;;;;;;;;;;;;;;5059587;28;19936;-87
2022/03/28 07:55:53;;;;;;;;;;;;;;;;;;5043495;28;19912;-90
2022/03/28 07:58:29;;;;;;;;;;;;;;;;;;5046418;28;19909;-89
2022/03/28 08:01:06;;;;;;;;;;;;;;;;;;5025800;28;20003;-88
2022/03/28 08:03:45;;;;;;;;;;;;;;;;;;5061022;28;20003;-86
2022/03/28 08:06:16;;;;;;;;;;;;;;;;;;5053769;28;19920;-86
2022/03/28 08:08:42;;;;;;;;;;;;;;;;;;5048228;28;19916;-89
2022/03/28 08:11:09;;;;;;;;;;;;;;;;;;5061396;28;19936;-88
2022/03/28 08:13:36;;;;;;;;;;;;;;;;;;5048882;28;19908;-89
2022/03/28 08:16:08;;;;;;;;;;;;;;;;;;5039528;28;19921;-89
2022/03/28 08:18:39;;;;;;;;;;;;;;;;;;5041272;28;19913;-89
2022/03/28 08:21:13;;;;;;;;;;;;;;;;;;5039036;28;19916;-89
2022/03/28 08:23:38;;;;;;;;;;;;;;;;;;5025829;28;19912;-90
2022/03/28 08:26:04;;;;;;;;;;;;;;;;;;5041505;28;20250;-90
2022/03/28 08:31:30;;;;;;;;;;;;;;;;;;5043848;28;19928;-89
2022/03/28 08:34:03;;;;;;;;;;;;;;;;;;5025353;28;19913;-87
2022/03/28 08:37:02;;;;;;;;;;;;;;;;;;5045036;28;19923;-86
2022/03/28 08:39:30;;;;;;;;;;;;;;;;;;5025097;28;19944;-87
2022/03/28 08:42:00;;;;;;;;;;;;;;;;;;5030171;28;19932;-86
2022/03/28 08:44:29;;;;;;;;;;;;;;;;;;5038333;28;19917;-86
2022/03/28 08:46:55;;;;;;;;;;;;;;;;;;5039885;28;19935;-90
2022/03/28 08:49:32;;;;;;;;;;;;;;;;;;5039644;28;19913;-89
2022/03/28 08:52:04;;;;;;;;;;;;;;;;;;5040326;28;19979;-88
2022/03/28 08:54:31;;;;;;;;;;;;;;;;;;5021263;28;19916;-91
2022/03/28 08:56:57;;;;;;;;;;;;;;;;;;5044159;28;19971;-88
2022/03/28 08:59:28;;;;;;;;;;;;;;;;;;5042540;28;20247;-88
2022/03/28 09:01:53;;;;;;;;;;;;;;;;;;5023905;28;20047;-88
2022/03/28 09:04:20;;;;;;;;;;;;;;;;;;5036097;28;19905;-90
2022/03/28 09:07:16;;;;;;;;;;;;;;;;;;5041218;28;19947;-89
2022/03/28 09:09:41;;;;;;;;;;;;;;;;;;5038538;28;19924;-89
2022/03/28 09:12:10;;;;;;;;;;;;;;;;;;5018391;28;19909;-91
2022/03/28 09:14:40;;;;;;;;;;;;;;;;;;5024387;28;20693;-88
2022/03/28 09:17:06;;;;;;;;;;;;;;;;;;5039344;28;19928;-89
2022/03/28 09:19:34;;;;;;;;;;;;;;;;;;5046325;28;19909;-88
2022/03/28 09:21:59;;;;;;;;;;;;;;;;;;5039930;28;19940;-87
2022/03/28 09:24:25;;;;;;;;;;;;;;;;;;5040041;28;19916;-88
2022/03/28 09:26:55;;;;;;;;;;;;;;;;;;5027976;28;19917;-87
2022/03/28 09:29:21;;;;;;;;;;;;;;;;;;5018666;28;19927;-89
2022/03/28 09:31:46;;;;;;;;;;;;;;;;;;5022490;28;19916;-86
2022/03/28 09:34:24;;;;;;;;;;;;;;;;;;5056249;28;19978;-89
2022/03/28 09:36:49;;;;;;;;;;;;;;;;;;5041833;28;19913;-90
2022/03/28 09:39:16;;;;;;;;;;;;;;;;;;5057117;28;20472;-88
2022/03/28 09:41:50;;;;;;;;;;;;;;;;;;5022508;28;19919;-88
2022/03/28 09:44:16;;;;;;;;;;;;;;;;;;5024404;28;20003;-89
2022/03/28 09:46:41;;;;;;;;;;;;;;;;;;5025867;28;20394;-87
2022/03/28 09:49:09;;;;;;;;;;;;;;;;;;5056377;28;20338;-88
2022/03/28 09:51:35;;;;;;;;;;;;;;;;;;5022236;28;19920;-86
2022/03/28 09:54:04;;;;;;;;;;;;;;;;;;5041491;28;19917;-91
2022/03/28 09:56:30;;;;;;;;;;;;;;;;;;5060266;28;19927;-87
2022/03/28 09:59:04;;;;;;;;;;;;;;;;;;5061569;28;19972;-88
2022/03/28 10:01:43;;;;;;;;;;;;;;;;;;5063698;28;19912;-85
2022/03/28 10:04:16;;;;;;;;;;;;;;;;;;5064711;28;19955;-88
2022/03/28 10:06:41;;;;;;;;;;;;;;;;;;5060843;28;19935;-89
2022/03/28 10:09:07;;;;;;;;;;;;;;;;;;5046831;28;19939;-86
2022/03/28 10:11:36;;;;;;;;;;;;;;;;;;5051507;28;20338;-89
2022/03/28 10:14:08;;;;;;;;;;;;;;;;;;5066537;28;19908;-89
2022/03/28 10:16:37;;;;;;;;;;;;;;;;;;5066160;28;19923;-89
2022/03/28 10:19:02;;;;;;;;;;;;;;;;;;5050127;28;19916;-88
2022/03/28 10:21:27;;;;;;;;;;;;;;;;;;5035236;28;19908;-87
2022/03/28 10:23:56;;;;;;;;;;;;;;;;;;5065307;28;19908;-90
2022/03/28 10:26:30;;;;;;;;;;;;;;;;;;5032360;28;19968;-87
2022/03/28 10:28:55;;;;;;;;;;;;;;;;;;5046495;28;21335;-87
2022/03/28 10:31:29;;;;;;;;;;;;;;;;;;5064959;28;20472;-88
2022/03/28 10:33:55;;;;;;;;;;;;;;;;;;5045707;28;19917;-86
2022/03/28 10:36:24;;;;;;;;;;;;;;;;;;5062184;28;20354;-87
2022/03/28 10:38:51;;;;;;;;;;;;;;;;;;5042847;28;19916;-87
2022/03/28 10:41:16;;;;;;;;;;;;;;;;;;5039173;28;19909;-89
2022/03/28 10:43:42;;;;;;;;;;;;;;;;;;5042753;28;19908;-87
2022/03/28 10:46:16;;;;;;;;;;;;;;;;;;5058452;28;19919;-89
2022/03/28 10:48:42;;;;;;;;;;;;;;;;;;5060042;28;19917;-86
2022/03/28 10:51:09;;;;;;;;;;;;;;;;;;5025812;28;19923;-90
2022/03/28 10:53:42;;;;;;;;;;;;;;;;;;5057424;28;19916;-87
2022/03/28 10:56:13;;;;;;;;;;;;;;;;;;5039801;28;19919;-89
2022/03/28 10:58:39;;;;;;;;;;;;;;;;;;5041506;28;20003;-90
2022/03/28 11:01:11;;;;;;;;;;;;;;;;;;5043405;28;19921;-89
2022/03/28 11:03:43;;;;;;;;;;;;;;;;;;5043967;28;19909;-90
2022/03/28 11:06:09;;;;;;;;;;;;;;;;;;5072740;28;19931;-89
2022/03/28 11:08:38;;;;;;;;;;;;;;;;;;5049960;28;19919;-90
2022/03/28 11:11:07;;;;;;;;;;;;;;;;;;5071385;28;19956;-88
2022/03/28 11:13:36;;;;;;;;;;;;;;;;;;5074942;28;19934;-88
2022/03/28 11:16:10;;;;;;;;;;;;;;;;;;5062897;28;19916;-89
2022/03/28 11:18:38;;;;;;;;;;;;;;;;;;5019001;28;19901;-86
2022/03/28 11:21:07;;;;;;;;;;;;;;;;;;5054670;28;19912;-88
2022/03/28 11:23:34;;;;;;;;;;;;;;;;;;5051163;28;20023;-88
2022/03/28 11:26:03;;;;;;;;;;;;;;;;;;5052101;28;19919;-92
2022/03/28 11:28:29;;;;;;;;;;;;;;;;;;5051370;28;19912;-91
2022/03/28 11:30:55;;;;;;;;;;;;;;;;;;5059837;28;19908;-89
2022/03/28 11:33:25;;;;;;;;;;;;;;;;;;5058932;28;20727;-88
2022/03/28 11:35:51;;;;;;;;;;;;;;;;;;5040889;28;19940;-87
2022/03/28 11:38:21;;;;;;;;;;;;;;;;;;5037673;28;19927;-89
2022/03/28 11:40:46;;;;;;;;;;;;;;;;;;5018062;28;19917;-89
2022/03/28 11:43:17;;;;;;;;;;;;;;;;;;5018562;28;20452;-90
2022/03/28 11:45:46;;;;;;;;;;;;;;;;;;5017739;28;19913;-87
2022/03/28 11:48:23;;;;;;;;;;;;;;;;;;5000593;28;20068;-89
2022/03/28 11:50:53;;;;;;;;;;;;;;;;;;5000538;28;19948;-89
2022/03/28 11:53:21;;;;;;;;;;;;;;;;;;5000309;28;20856;-91
2022/03/28 11:55:50;;;;;;;;;;;;;;;;;;4999699;28;20016;-88
2022/03/28 11:58:19;;;;;;;;;;;;;;;;;;5001350;28;19976;-92
2022/03/28 12:01:03;;;;;;;;;;;;;;;;;;5021102;28;19920;-88
2022/03/28 12:03:28;;;;;;;;;;;;;;;;;;5000775;28;19909;-89
2022/03/28 12:05:58;;;;;;;;;;;;;;;;;;5015448;28;20338;-91
2022/03/28 12:08:27;;;;;;;;;;;;;;;;;;5015631;28;19913;-88
2022/03/28 12:10:57;;;;;;;;;;;;;;;;;;5019584;28;19909;-90
2022/03/28 12:13:24;;;;;;;;;;;;;;;;;;5002137;28;19913;-89
2022/03/28 12:15:53;;;;;;;;;;;;;;;;;;5014191;28;19924;-90
2022/03/28 12:18:18;;;;;;;;;;;;;;;;;;5004087;28;20011;-89
2022/03/28 12:20:44;;;;;;;;;;;;;;;;;;5021793;28;19940;-87
2022/03/28 12:23:09;;;;;;;;;;;;;;;;;;5032357;28;19978;-89
2022/03/28 12:25:37;;;;;;;;;;;;;;;;;;5029195;28;19976;-90
2022/03/28 12:28:02;;;;;;;;;;;;;;;;;;5021071;28;19949;-88
2022/03/28 12:30:28;;;;;;;;;;;;;;;;;;5035678;28;19936;-91
2022/03/28 12:32:54;;;;;;;;;;;;;;;;;;5034240;28;20354;-87
2022/03/28 12:35:23;;;;;;;;;;;;;;;;;;5018514;28;19981;-90
2022/03/28 12:37:48;;;;;;;;;;;;;;;;;;5020107;28;19923;-89
2022/03/28 12:40:21;;;;;;;;;;;;;;;;;;5015395;28;19960;-90
2022/03/28 12:42:48;;;;;;;;;;;;;;;;;;5016489;28;19957;-90
2022/03/28 12:45:16;;;;;;;;;;;;;;;;;;5022712;28;20524;-90
2022/03/28 12:47:44;;;;;;;;;;;;;;;;;;5018277;28;19928;-88
2022/03/28 12:50:10;;;;;;;;;;;;;;;;;;5016966;28;19909;-89
2022/03/28 12:52:39;;;;;;;;;;;;;;;;;;5034025;28;20016;-86
2022/03/28 12:55:08;;;;;;;;;;;;;;;;;;5018671;28;19972;-91
2022/03/28 12:57:37;;;;;;;;;;;;;;;;;;5024197;28;19921;-89
2022/03/28 13:00:05;;;;;;;;;;;;;;;;;;5017031;28;19919;-87
2022/03/28 13:02:33;;;;;;;;;;;;;;;;;;5005743;28;19917;-89
2022/03/28 13:05:05;;;;;;;;;;;;;;;;;;5003283;28;19967;-88
2022/03/28 13:07:33;;;;;;;;;;;;;;;;;;5016894;28;19917;-88
2022/03/28 13:09:58;;;;;;;;;;;;;;;;;;5017572;28;19988;-91
2022/03/28 13:12:26;;;;;;;;;;;;;;;;;;5032624;28;19925;-91
2022/03/28 13:15:09;;;;;;;;;;;;;;;;;;5032959;28;19975;-89
2022/03/28 13:17:35;;;;;;;;;;;;;;;;;;5011510;28;20870;-90
2022/03/28 13:20:03;;;;;;;;;;;;;;;;;;5001139;28;19951;-90
2022/03/28 13:22:28;;;;;;;;;;;;;;;;;;5006725;28;19964;-90
2022/03/28 13:24:56;;;;;;;;;;;;;;;;;;5020760;28;19909;-90
2022/03/28 13:30:11;;;;;;;;;;;;;;;;;;5047386;28;19909;-88
2022/03/28 13:32:59;;;;;;;;;;;;;;;;;;5043355;28;19913;-86
2022/03/28 13:35:26;;;;;;;;;;;;;;;;;;5017419;28;19992;-87
2022/03/28 13:37:51;;;;;;;;;;;;;;;;;;5037729;28;19912;-88
2022/03/28 13:40:18;;;;;;;;;;;;;;;;;;5021677;28;19897;-87
2022/03/28 13:42:44;;;;;;;;;;;;;;;;;;5029655;28;19987;-87
2022/03/28 13:45:13;;;;;;;;;;;;;;;;;;5030252;28;19917;-89
2022/03/28 13:47:39;;;;;;;;;;;;;;;;;;5033667;28;19936;-88
2022/03/28 13:50:04;;;;;;;;;;;;;;;;;;5014769;28;20507;-89
2022/03/28 13:52:36;;;;;;;;;;;;;;;;;;5031543;28;19920;-91
2022/03/28 13:55:07;;;;;;;;;;;;;;;;;;5051024;28;19912;-88
2022/03/28 13:57:35;;;;;;;;;;;;;;;;;;5051200;28;19927;-88
2022/03/28 14:00:03;;;;;;;;;;;;;;;;;;5049581;28;19909;-88
2022/03/28 14:02:31;;;;;;;;;;;;;;;;;;5047682;28;19924;-88
2022/03/28 14:04:59;;;;;;;;;;;;;;;;;;5034032;28;19947;-88
2022/03/28 14:07:24;;;;;;;;;;;;;;;;;;5019616;28;19901;-86
2022/03/28 14:09:51;;;;;;;;;;;;;;;;;;5022802;28;19963;-87
2022/03/28 14:12:20;;;;;;;;;;;;;;;;;;5054296;28;19917;-87
2022/03/28 14:15:03;;;;;;;;;;;;;;;;;;5023348;28;19914;-88
2022/03/28 14:17:29;;;;;;;;;;;;;;;;;;5008290;28;19917;-89
2022/03/28 14:19:57;;;;;;;;;;;;;;;;;;5012522;28;20520;-88
2022/03/28 14:22:26;;;;;;;;;;;;;;;;;;5024858;28;19930;-91
2022/03/28 14:25:03;;;;;;;;;;;;;;;;;;4998896;28;19929;-87
2022/03/28 14:28:12;;;;;;;;;;;;;;;;;;4997091;28;19924;-89
2022/03/28 14:30:45;;;;;;;;;;;;;;;;;;4998860;28;19905;-90
2022/03/28 14:33:15;;;;;;;;;;;;;;;;;;4980341;28;19925;-88
2022/03/28 14:35:55;;;;;;;;;;;;;;;;;;4968809;28;19920;-87
2022/03/28 14:38:21;;;;;;;;;;;;;;;;;;4997733;28;19921;-89
2022/03/28 14:40:50;;;;;;;;;;;;;;;;;;4967319;28;19909;-87
2022/03/28 14:43:18;;;;;;;;;;;;;;;;;;4981967;28;20500;-87
2022/03/28 14:48:47;;;;;;;;;;;;;;;;;;4990889;28;19918;-88
2022/03/28 14:51:19;;;;;;;;;;;;;;;;;;4965192;28;19913;-86
2022/03/28 14:53:45;;;;;;;;;;;;;;;;;;4977951;28;19982;-87
2022/03/28 14:56:10;;;;;;;;;;;;;;;;;;4966665;28;19913;-87
2022/03/28 14:58:50;;;;;;;;;;;;;;;;;;5008332;28;19917;-87
2022/03/28 15:01:42;;;;;;;;;;;;;;;;;;5012829;28;19928;-89
2022/03/28 15:04:08;;;;;;;;;;;;;;;;;;5010881;28;19921;-87
2022/03/28 15:06:36;;;;;;;;;;;;;;;;;;4995099;28;19909;-86
2022/03/28 15:09:05;;;;;;;;;;;;;;;;;;5025693;28;20103;-89
2022/03/28 15:11:31;;;;;;;;;;;;;;;;;;5019606;28;19917;-88
2022/03/28 15:14:05;;;;;;;;;;;;;;;;;;5009215;28;19971;-87
2022/03/28 15:16:30;;;;;;;;;;;;;;;;;;5016130;28;19944;-88
2022/03/28 15:18:59;;;;;;;;;;;;;;;;;;4993339;28;19982;-87
2022/03/28 15:21:31;;;;;;;;;;;;;;;;;;5009357;28;19913;-89
2022/03/28 15:23:58;;;;;;;;;;;;;;;;;;5006829;28;20012;-87
2022/03/28 15:29:25;;;;;;;;;;;;;;;;;;5015117;28;19921;-86
2022/03/28 15:32:00;;;;;;;;;;;;;;;;;;5010890;28;19921;-89
2022/03/28 15:34:35;;;;;;;;;;;;;;;;;;4993686;28;19992;-89
2022/03/28 15:37:09;;;;;;;;;;;;;;;;;;4999841;28;20342;-89
2022/03/28 15:39:44;;;;;;;;;;;;;;;;;;5003448;28;19914;-91
2022/03/28 15:42:25;;;;;;;;;;;;;;;;;;5020572;28;19917;-89
2022/03/28 15:44:54;;;;;;;;;;;;;;;;;;4995058;28;19985;-87
2022/03/28 15:47:21;;;;;;;;;;;;;;;;;;4997515;28;19909;-90
2022/03/28 15:49:49;;;;;;;;;;;;;;;;;;4985782;28;19949;-90
2022/03/28 15:52:29;;;;;;;;;;;;;;;;;;5000966;28;19913;-90
2022/03/28 15:55:15;;;;;;;;;;;;;;;;;;5001659;28;19913;-90
2022/03/28 15:57:51;;;;;;;;;;;;;;;;;;5003746;28;19952;-90
2022/03/28 16:00:33;;;;;;;;;;;;;;;;;;5021463;28;19913;-87
2022/03/28 16:03:08;;;;;;;;;;;;;;;;;;5003908;28;19944;-88
2022/03/28 16:05:36;;;;;;;;;;;;;;;;;;5023825;28;20370;-89
2022/03/28 16:08:03;;;;;;;;;;;;;;;;;;5024267;28;20056;-91
2022/03/28 16:10:30;;;;;;;;;;;;;;;;;;5048787;28;19917;-86
2022/03/28 16:12:55;;;;;;;;;;;;;;;;;;5048842;28;20063;-86
2022/03/28 16:15:22;;;;;;;;;;;;;;;;;;5043627;28;19928;-90
2022/03/28 16:17:51;;;;;;;;;;;;;;;;;;5037936;28;19931;-88
2022/03/28 16:20:16;;;;;;;;;;;;;;;;;;5018262;28;19936;-87
2022/03/28 16:22:44;;;;;;;;;;;;;;;;;;5021898;28;20462;-90
2022/03/28 16:25:11;;;;;;;;;;;;;;;;;;5032427;28;19913;-88
2022/03/28 16:27:39;;;;;;;;;;;;;;;;;;5017455;28;19909;-90
2022/03/28 16:30:05;;;;;;;;;;;;;;;;;;5035452;28;19927;-90
2022/03/28 16:35:46;;;;;;;;;;;;;;;;;;5036209;28;20274;-89
2022/03/28 16:38:44;;;;;;;;;;;;;;;;;;5035781;28;19928;-89
2022/03/28 16:41:09;;;;;;;;;;;;;;;;;;5032118;28;19909;-87
2022/03/28 16:43:36;;;;;;;;;;;;;;;;;;5017075;28;19913;-88
2022/03/28 16:46:05;;;;;;;;;;;;;;;;;;5020489;28;19913;-88
2022/03/28 16:48:33;;;;;;;;;;;;;;;;;;5014667;28;20024;-88
2022/03/28 16:51:06;;;;;;;;;;;;;;;;;;5014532;28;19944;-91
2022/03/28 16:53:36;;;;;;;;;;;;;;;;;;4983438;28;19964;-88
2022/03/28 16:56:04;;;;;;;;;;;;;;;;;;4986021;28;19910;-89
2022/03/28 16:58:35;;;;;;;;;;;;;;;;;;4989393;28;19967;-88
2022/03/28 17:01:02;;;;;;;;;;;;;;;;;;4990930;28;20385;-88
2022/03/28 17:03:33;;;;;;;;;;;;;;;;;;4998605;28;19990;-91
2022/03/28 17:06:02;;;;;;;;;;;;;;;;;;4984406;28;19920;-87
2022/03/28 17:08:36;;;;;;;;;;;;;;;;;;5006846;28;19913;-90
2022/03/28 17:11:34;;;;;;;;;;;;;;;;;;5001269;28;20008;-86
2022/03/28 17:14:02;;;;;;;;;;;;;;;;;;4988047;28;19933;-90
2022/03/28 17:16:35;;;;;;;;;;;;;;;;;;5025010;28;19917;-89
2022/03/28 17:19:09;;;;;;;;;;;;;;;;;;5028792;28;19910;-88
2022/03/28 17:21:42;;;;;;;;;;;;;;;;;;5020845;28;19943;-86
2022/03/28 17:24:07;;;;;;;;;;;;;;;;;;5008730;28;19909;-88
2022/03/28 17:26:40;;;;;;;;;;;;;;;;;;4993802;28;21380;-89
2022/03/28 17:29:13;;;;;;;;;;;;;;;;;;4982876;28;19953;-87
2022/03/28 17:31:49;;;;;;;;;;;;;;;;;;4977415;28;19914;-86
2022/03/28 17:34:31;;;;;;;;;;;;;;;;;;5002265;28;19920;-91
2022/03/28 17:37:56;;;;;;;;;;;;;;;;;;;;;
2022/03/28 17:40:40;;;;;;;;;;;;;;;;;;4980193;22;20432;-58
2022/03/28 17:43:12;;;;;;;;;;;;;;;;;;5021708;28;19921;-60
2022/03/28 17:45:40;;;;;;;;;;;;;;;;;;5023300;28;21902;-60
2022/03/28 17:48:10;;;;;;;;;;;;;;;;;;5026307;28;19919;-60
2022/03/28 17:50:37;;;;;;;;;;;;;;;;;;5018565;28;19927;-60
2022/03/28 17:53:03;;;;;;;;;;;;;;;;;;5014219;28;22038;-59
2022/03/28 17:55:28;;;;;;;;;;;;;;;;;;5014888;28;19959;-59
2022/03/28 17:57:54;;;;;;;;;;;;;;;;;;5012106;28;19978;-59
2022/03/28 18:00:20;;;;;;;;;;;;;;;;;;5008190;28;19921;-61
2022/03/28 18:02:45;;;;;;;;;;;;;;;;;;5017608;28;21908;-59
2022/03/28 18:05:10;;;;;;;;;;;;;;;;;;5013000;28;20421;-60
2022/03/28 18:07:36;;;;;;;;;;;;;;;;;;5017491;28;19935;-59
2022/03/28 18:10:01;;;;;;;;;;;;;;;;;;5014556;28;20767;-59
2022/03/28 18:12:27;;;;;;;;;;;;;;;;;;5013264;28;19917;-59
2022/03/28 18:14:52;;;;;;;;;;;;;;;;;;5011941;28;20372;-60
2022/03/28 18:17:20;;;;;;;;;;;;;;;;;;5016796;28;19916;-61
2022/03/28 18:19:46;;;;;;;;;;;;;;;;;;5012884;28;20481;-59
2022/03/28 18:22:12;;;;;;;;;;;;;;;;;;5014009;28;19920;-59
2022/03/28 18:24:37;;;;;;;;;;;;;;;;;;4998226;28;20406;-60
2022/03/28 18:27:03;;;;;;;;;;;;;;;;;;5014807;28;19921;-60
2022/03/28 18:29:28;;;;;;;;;;;;;;;;;;5017475;28;20245;-60
2022/03/28 18:31:54;;;;;;;;;;;;;;;;;;5017749;28;20040;-59
2022/03/28 18:34:22;;;;;;;;;;;;;;;;;;5018418;28;19932;-60
2022/03/28 18:36:48;;;;;;;;;;;;;;;;;;5016880;28;20631;-59